Tiempo atmosférico en la estación meteorológica de Agulo, Santa Cruz de Tenerife (765 m.)



Fecha
DESCASC
Temp. máxima en grados centígrados (hora)
DESCASC
Temp. mínima en grados centígrados (hora)
DESCASC
Temp. media en grados centígrados
DESCASC
Racha de viento máxima en m/sg (hora)
DESCASC
Velocidad máxima media en intervalos de 10 minutos(hora)
DESCASC
Precipitaciones diarias en mm
DESCASC
Precipitaciones de 00:00 a 06:00 en mm
DESCASC
Precipitaciones de 06:00 a 12:00 en mm
DESCASC
Precipitaciones de 12:00 a 18:00 en mm
DESCASC
Precipitaciones de 18:00 a 24:00 en mm
DESCASC
23-06-2019 25.1 (18:20) 14.7 (07:00) 19.9 6.11 (20:20) 4.17 (19:10) 0 0 0 0 0
22-06-2019 21.6 (13:30) 14.2 (07:40) 17.9 6.39 (21:40) 2.78 (15:50) 0 0 0 0 0
21-06-2019 20.5 (13:40) 14.4 (05:10) 17.4 6.67 (12:30) 3.33 (12:40) 0 0 0 0 0
20-06-2019 21.3 (14:00) 14.6 (00:00) 17.9 6.11 (06:50) 2.78 (06:10) 0.2 0.2 0 0 0
19-06-2019 22.5 (16:20) 13.6 (00:00) 18.1 5.83 (13:30) 2.78 (14:40) 0 0 0 0 0
18-06-2019 21.4 (12:30) 15.7 (00:00) 18.5 8.33 (06:40) 6.39 (08:00) 0 0 0 0 0
17-06-2019 23.5 (18:00) 13.2 (00:00) 18.3 12.5 (21:30) 8.33 (21:30) 0 0 0 0 0
16-06-2019 21.4 (15:50) 11.8 (00:00) 16.6 4.72 (05:20) 3.33 (05:30) 0 0 0 0 0
15-06-2019 16.4 (19:10) 11.6 (00:00) 14 4.72 (08:00) 1.94 (23:10) 0 0 0 0 0
14-06-2019 17.4 (14:50) 12.2 (00:00) 14.8 5.28 (12:30) 2.5 (17:40) 0 0 0 0 0
13-06-2019 19.1 (17:00) 12 (00:00) 15.6 7.22 (14:00) 2.22 (23:59) 0 0 0 0 0
12-06-2019 16.2 (17:40) 13.3 (00:00) 14.8 6.94 (02:30) 2.5 (00:30) 8.2 0 8 0.2 0
11-06-2019 17.9 (14:10) 12.4 (00:00) 15.1 6.94 (19:00) 2.5 (02:30) 1.6 0 0 1.6 0
10-06-2019 19.2 (13:50) 12.5 (00:00) 15.9 7.22 (17:00) 2.78 (23:00) 0 0 0 0 0
09-06-2019 18.9 (15:50) 11.8 (00:00) 15.3 6.94 (08:40) 2.78 (07:30) 0 0 0 0 0
08-06-2019 16.8 (14:20) 12.9 (00:00) 14.8 9.17 (09:40) 4.44 (09:40) 0.6 0.4 0.2 0 0
07-06-2019 20.1 (17:20) 12.2 (00:00) 16.2 6.39 (11:20) 3.33 (11:30) 0 0 0 0 0
06-06-2019 18.3 (17:30) 12.1 (00:00) 15.2 6.11 (04:50) 2.5 (05:30) 0.2 0.2 0 0 0
05-06-2019 19.7 (15:00) 13.8 (00:00) 16.8 8.61 (11:20) 3.61 (14:10) 0 0 0 0 0
04-06-2019 23.9 (16:50) 14.9 (00:00) 19.4 7.78 (00:50) 3.89 (00:30) 0 0 0 0 0
03-06-2019 28.1 (16:00) 17.4 (00:00) 22.8 9.72 (00:10) 3.61 (09:40) 0 0 0 0 0
02-06-2019 29.2 (13:00) 14.4 (00:00) 21.8 11.67 (06:30) 7.5 (06:40) 0 0 0 0 0
01-06-2019 24.4 (14:20) 13.4 (00:00) 18.9 4.17 (00:10) 3.33 (07:10) 0 0 0 0 0
31-05-2019 23.4 (15:40) 11.9 (00:00) 17.6 4.44 (23:50) 2.78 (23:50) 0 0 0 0 0
30-05-2019 20.9 (16:10) 12.4 (00:00) 16.6 4.44 (17:40) 2.5 (17:40) 0 0 0 0 0
29-05-2019 20.9 (16:20) 12.2 (00:00) 16.5 4.17 (11:10) 2.22 (02:00) 0 0 0 0 0
28-05-2019 19.2 (17:20) 13.3 (00:00) 16.3 5.28 (08:40) 2.78 (08:40) 0 0 0 0 0
27-05-2019 20.3 (13:50) 12.7 (00:00) 16.5 4.44 (11:10) 2.5 (11:20) 0 0 0 0 0

Gráficas

Temp. máximas Temp. mínimas Temp. medias Precipitaciones Rachas de viento máximas Velocidades máximas media en intervalos de 10 minutos

Datos horarios

Fecha y hora oficial Temperatura (ºC) Velocidad del viento (km/h) Dirección del viento Racha (km/h) Dirección de racha Precipitación (mm) Presión (hPa) Tendencia (hPa) Humedad (%)
2019-06-25 23:00:00 15.6 4 Noroeste 20 Norte 0 -- -- 98
2019-06-25 22:00:00 15.8 7 Norte 22 Norte 0 -- -- 98
2019-06-25 21:00:00 16 7 Norte 18 Nordeste 0 -- -- 97
2019-06-25 20:00:00 16.7 3 Noroeste 13 Norte 0 -- -- 96
2019-06-25 19:00:00 17 3 Norte 18 Nordeste 0 -- -- 95
2019-06-25 18:00:00 17.4 3 Nordeste 14 Norte 0 -- -- 96
2019-06-25 17:00:00 17.6 3 Noroeste 15 Noroeste 0 -- -- 92
2019-06-25 16:00:00 17.7 3 Oeste 18 Norte 0 -- -- 95
2019-06-25 15:00:00 17.8 3 Sudoeste 12 Sudeste 0 -- -- 92
2019-06-25 14:00:00 17.7 4 Este 14 Nordeste 0 -- -- 92
2019-06-25 13:00:00 19 7 Noroeste 18 Norte 0 -- -- 94
2019-06-25 12:00:00 18 6 Noroeste 13 Norte 0 -- -- 96
2019-06-25 11:00:00 16.6 8 Norte 15 Norte 0.2 -- -- 99
2019-06-25 10:00:00 17 2 Sur 17 Norte 0 -- -- 100
2019-06-25 09:00:00 16.7 4 Norte 13 Nordeste 0.4 -- -- 99
2019-06-25 08:00:00 16.8 6 Norte 17 Nordeste 0.8 -- -- 100
2019-06-25 07:00:00 17.1 5 Norte 14 Norte 1 -- -- 100
2019-06-25 06:00:00 17 4 Norte 13 Norte 0.8 -- -- 99
2019-06-25 05:00:00 17.1 4 Norte 15 Norte 0.2 -- -- 99
2019-06-25 04:00:00 17.3 8 Norte 15 Norte 0.2 -- -- 99
2019-06-25 03:00:00 17.7 5 Norte 11 Norte 0.4 -- -- 98
2019-06-25 02:00:00 17.9 4 Norte 14 Norte 0.6 -- -- 98
2019-06-25 01:00:00 18.3 5 Norte 18 Norte 0 -- -- 97
2019-06-25 00:00:00 18.5 10 Noroeste 23 Norte 0 -- -- 95
2019-06-24 23:00:00 18.8 9 Noroeste 31 Oeste 0 -- -- 93
2019-06-24 22:00:00 18.9 11 Noroeste 18 Norte 0 -- -- 90
2019-06-24 21:00:00 20 5 Noroeste 12 Noroeste 0 -- -- 84
2019-06-24 20:00:00 21.8 3 Norte 13 Nordeste 0 -- -- 77
2019-06-24 19:00:00 23 5 Nordeste 12 Sur 0 -- -- 72
2019-06-24 18:00:00 24.9 4 Sudeste 14 Sur 0 -- -- 67
2019-06-24 17:00:00 24.6 4 Sudeste 11 Sudeste 0 -- -- 68
2019-06-24 16:00:00 24 4 Este 12 Sur 0 -- -- 70
2019-06-24 15:00:00 24 6 Sudeste 15 Sur 0 -- -- 73
2019-06-24 14:00:00 23.6 8 Sur 17 Sudeste 0 -- -- 73
2019-06-24 13:00:00 21.1 3 Sur 12 Norte 0 -- -- 82
2019-06-24 12:00:00 21.2 4 Sur 15 Sudoeste 0 -- -- 82
2019-06-24 11:00:00 21 3 Noroeste 14 Sur 0 -- -- 83
2019-06-24 10:00:00 20 8 Sudeste 14 Sur 0 -- -- 86
2019-06-24 09:00:00 19.1 4 Sudeste 8 Sudeste 0 -- -- 86
2019-06-24 08:00:00 17 0 Calma 5 Noroeste 0 -- -- 91
2019-06-24 07:00:00 16.2 5 Noroeste 9 Sudoeste 0 -- -- 95
2019-06-24 06:00:00 15.7 9 Sudoeste 11 Sudoeste 0 -- -- 94
2019-06-24 05:00:00 16 0 Calma 7 Noroeste 0 -- -- 95
2019-06-24 04:00:00 16.3 3 Noroeste 11 Norte 0 -- -- 96
2019-06-24 03:00:00 16.4 3 Oeste 14 Noroeste 0 -- -- 93
2019-06-24 02:00:00 17.3 5 Sudoeste 10 Sudoeste 0 -- -- 92
2019-06-24 01:00:00 17.8 0 Calma 6 Oeste 0 -- -- 93
2019-06-24 00:00:00 17.7 5 Oeste 8 Noroeste 0 -- -- 92
2019-06-23 23:00:00 17.6 5 Nordeste 21 Noroeste 0 -- -- 92
2019-06-23 22:00:00 17.7 13 Noroeste 18 Noroeste 0 -- -- 88
2019-06-23 21:00:00 18.9 8 Oeste 22 Noroeste 0 -- -- 82
2019-06-23 20:00:00 21.1 13 Noroeste 21 Noroeste 0 -- -- 73
2019-06-23 19:00:00 24.4 10 Noroeste 19 Norte 0 -- -- 60
2019-06-23 18:00:00 25 8 Norte 19 Nordeste 0 -- -- 58
2019-06-23 17:00:00 24 3 Sudeste 11 Sudoeste 0 -- -- 62
2019-06-23 16:00:00 23.8 4 Sur 17 Sudeste 0 -- -- 64
2019-06-23 15:00:00 22.9 7 Nordeste 21 Norte 0 -- -- 65
2019-06-23 14:00:00 22.7 7 Norte 18 Norte 0 -- -- 65
2019-06-23 13:00:00 22.4 7 Norte 21 Norte 0 -- -- 64
2019-06-23 12:00:00 21.6 5 Norte 18 Norte 0 -- -- 64
2019-06-23 11:00:00 20.8 5 Norte 13 Norte 0 -- -- 70
2019-06-23 10:00:00 19.2 4 Nordeste 10 Nordeste 0 -- -- 78
2019-06-23 09:00:00 17.7 6 Nordeste 10 Nordeste 0 -- -- 84
2019-06-23 08:00:00 15.2 4 Norte 15 Norte 0 -- -- 95
2019-06-23 07:00:00 14.7 5 Norte 10 Noroeste 0 -- -- 96
2019-06-23 06:00:00 15.7 4 Norte 15 Nordeste 0 -- -- 97
2019-06-23 05:00:00 15.6 4 Norte 16 Nordeste 0 -- -- 96
2019-06-23 04:00:00 15.6 4 Nordeste 13 Nordeste 0 -- -- 97
2019-06-23 03:00:00 15.6 3 Nordeste 14 Nordeste 0 -- -- 96
2019-06-23 02:00:00 15.2 5 Nordeste 18 Nordeste 0 -- -- 96
2019-06-23 01:00:00 15.1 7 Norte 17 Nordeste 0 -- -- 96
2019-06-23 00:00:00 15.4 6 Nordeste 16 Norte 0 -- -- 94
2019-06-22 23:00:00 16 4 Nordeste 16 Nordeste 0 -- -- 93
2019-06-22 22:00:00 15.9 6 Norte 23 Norte 0 -- -- 93
2019-06-22 21:00:00 16.6 7 Norte 17 Noroeste 0 -- -- 89
2019-06-22 20:00:00 18.2 7 Norte 18 Nordeste 0 -- -- 78
2019-06-22 19:00:00 20.8 8 Noroeste 20 Norte 0 -- -- 69
2019-06-22 18:00:00 20.8 9 Norte 23 Norte 0 -- -- 65
2019-06-22 17:00:00 20.9 9 Norte 22 Norte 0 -- -- 65
2019-06-22 16:00:00 21.5 8 Norte 21 Nordeste 0 -- -- 63
2019-06-22 15:00:00 21.1 8 Norte 19 Nordeste 0 -- -- 63
2019-06-22 14:00:00 21.2 4 Nordeste 17 Sur 0 -- -- 56
2019-06-22 13:00:00 20.9 5 Sudeste 16 Sudeste 0 -- -- 61
2019-06-22 12:00:00 19.9 4 Sudeste 15 Sur 0 -- -- 62
2019-06-22 11:00:00 18 5 Nordeste 13 Nordeste 0 -- -- 71
2019-06-22 10:00:00 17.2 5 Sudoeste 13 Oeste 0 -- -- 82
2019-06-22 09:00:00 15.5 4 Este 10 Sudoeste 0 -- -- 96
2019-06-22 08:00:00 14.3 2 Este 10 Norte 0 -- -- 98
2019-06-22 07:00:00 14.4 0 Calma 10 Nordeste 0 -- -- 99
2019-06-22 06:00:00 14.4 5 Este 14 Noroeste 0 -- -- 98
2019-06-22 05:00:00 14.5 4 Sudoeste 11 Noroeste 0 -- -- 98
2019-06-22 04:00:00 14.3 4 Sudoeste 11 Oeste 0 -- -- 97
2019-06-22 03:00:00 14.5 4 Sur 15 Norte 0 -- -- 98
2019-06-22 02:00:00 14.5 5 Oeste 20 Norte 0 -- -- 97
2019-06-22 01:00:00 14.5 4 Nordeste 13 Norte 0 -- -- 95
2019-06-22 00:00:00 14.7 4 Nordeste 19 Norte 0 -- -- 95
2019-06-21 23:00:00 14.8 5 Este 15 Norte 0 -- -- 94
2019-06-21 22:00:00 15 4 Este 9 Nordeste 0 -- -- 92
2019-06-21 21:00:00 15.3 5 Nordeste 12 Noroeste 0 -- -- 88
2019-06-21 20:00:00 17.6 7 Norte 18 Nordeste 0 -- -- 74
2019-06-21 19:00:00 19 5 Norte 17 Nordeste 0 -- -- 66
2019-06-21 18:00:00 19.1 7 Noroeste 16 Noroeste 0 -- -- 67
2019-06-21 17:00:00 18.9 5 Nordeste 17 Sur 0 -- -- 69
2019-06-21 16:00:00 19.9 5 Norte 14 Este 0 -- -- 74
2019-06-21 15:00:00 19.9 5 Nordeste 19 Este 0 -- -- 75
2019-06-21 14:00:00 19.9 5 Este 17 Sudeste 0 -- -- 75
2019-06-21 13:00:00 18.5 8 Sudeste 24 Este 0 -- -- 79
2019-06-21 12:00:00 17.3 9 Este 20 Este 0 -- -- 88
2019-06-21 11:00:00 16.2 6 Nordeste 20 Este 0 -- -- 97
2019-06-21 10:00:00 15.3 5 Sudeste 21 Nordeste 0 -- -- 99
2019-06-21 09:00:00 15.2 6 Sudeste 16 Norte 0 -- -- 100
2019-06-21 08:00:00 14.8 4 Sur 19 Este 0 -- -- 100
2019-06-21 07:00:00 14.6 4 Sur 16 Noroeste 0 -- -- 99
2019-06-21 06:00:00 14.4 3 Sur 13 Nordeste 0 -- -- 99
2019-06-21 05:00:00 14.6 3 Sudoeste 15 Este 0 -- -- 99
2019-06-21 04:00:00 15.1 4 Sudoeste 13 Este 0 -- -- 99
2019-06-21 03:00:00 15 4 Sudeste 14 Norte 0 -- -- 99
2019-06-21 02:00:00 15 4 Sur 23 Sudeste 0 -- -- 99
2019-06-21 01:00:00 15.5 5 Sudeste 19 Nordeste 0 -- -- 99
2019-06-21 00:00:00 15.7 5 Sur 19 Sudoeste 0 -- -- 98
2019-06-20 23:00:00 15.5 5 Este 20 Norte 0 -- -- 97
2019-06-20 22:00:00 15.7 4 Sur 21 Norte 0 -- -- 96
2019-06-20 21:00:00 16.1 5 Sudoeste 18 Nordeste 0 -- -- 95
2019-06-20 20:00:00 16.5 5 Sur 20 Sudoeste 0 -- -- 90
2019-06-20 19:00:00 17.6 6 Sur 13 Sudeste 0 -- -- 85
2019-06-20 18:00:00 18.7 4 Sur 13 Este 0 -- -- 79
2019-06-20 17:00:00 18.9 5 Norte 15 Sudeste 0 -- -- 78
2019-06-20 16:00:00 19.3 6 Este 17 Noroeste 0 -- -- 79
2019-06-20 15:00:00 20.3 5 Noroeste 17 Nordeste 0 -- -- 75
2019-06-20 14:00:00 21.3 6 Sur 18 Este 0 -- -- 69
2019-06-20 13:00:00 20.1 5 Este 20 Sudeste 0 -- -- 74
2019-06-20 12:00:00 19.2 5 Sudeste 17 Sudeste 0 -- -- 77
2019-06-20 11:00:00 17.5 6 Sudeste 13 Nordeste 0 -- -- 88
2019-06-20 10:00:00 16.2 4 Sudeste 13 Nordeste 0 -- -- 95
2019-06-20 09:00:00 15.5 6 Oeste 21 Nordeste 0 -- -- 98
2019-06-20 08:00:00 14.9 6 Este 19 Norte 0 -- -- 99
2019-06-20 07:00:00 14.8 6 Norte 22 Norte 0 -- -- 99
2019-06-20 06:00:00 15.2 7 Nordeste 18 Nordeste 0.2 -- -- 98
2019-06-20 05:00:00 14.9 5 Norte 18 Norte 0 -- -- 97
2019-06-20 04:00:00 14.6 3 Nordeste 17 Norte 0 -- -- 97
2019-06-20 03:00:00 14.7 3 Sudeste 15 Norte 0 -- -- 96
2019-06-20 02:00:00 14.9 6 Norte 15 Norte 0 -- -- 96
2019-06-20 01:00:00 14.7 5 Norte 11 Noroeste 0 -- -- 95
2019-06-20 00:00:00 14.8 4 Norte 9 Norte 0 -- -- 95
2019-06-19 23:00:00 14.7 5 Noroeste 12 Norte 0 -- -- 92
2019-06-19 22:00:00 14.9 4 Norte 11 Norte 0 -- -- 90
2019-06-19 21:00:00 16.4 4 Norte 11 Norte 0 -- -- 86
2019-06-19 20:00:00 19 5 Norte 15 Nordeste 0 -- -- 76
2019-06-19 19:00:00 21.1 8 Norte 19 Norte 0 -- -- 66
2019-06-19 18:00:00 21.4 7 Norte 19 Norte 0 -- -- 67
2019-06-19 17:00:00 21.5 6 Norte 18 Norte 0 -- -- 70
2019-06-19 16:00:00 22.1 8 Noroeste 17 Noroeste 0 -- -- 69
2019-06-19 15:00:00 20 5 Norte 20 Noroeste 0 -- -- 77
2019-06-19 14:00:00 21.9 9 Norte 21 Nordeste 0 -- -- 68
2019-06-19 13:00:00 21.7 7 Norte 18 Norte 0 -- -- 68
2019-06-19 12:00:00 20.3 6 Norte 19 Norte 0 -- -- 67
2019-06-19 11:00:00 -- -- -- -- -- -- -- -- --
2019-06-19 10:00:00 -- -- -- -- -- -- -- -- --
2019-06-19 09:00:00 -- -- -- -- -- -- -- -- --
2019-06-19 08:00:00 -- -- -- -- -- -- -- -- --
2019-06-19 07:00:00 -- -- -- -- -- -- -- -- --
2019-06-19 06:00:00 -- -- -- -- -- -- -- -- --
2019-06-19 05:00:00 -- -- -- -- -- -- -- -- --
2019-06-19 04:00:00 -- -- -- -- -- -- -- -- --
2019-06-19 03:00:00 15.1 6 Norte 9 Norte 0 -- -- 94
2019-06-19 02:00:00 15.4 0 Calma 9 Oeste 0 -- -- 94
2019-06-19 01:00:00 15.2 2 Sudoeste 7 Noroeste 0 -- -- 94
2019-06-19 00:00:00 15.7 3 Nordeste 5 Noroeste 0 -- -- 94
2019-06-18 23:00:00 15.8 2 Nordeste 6 Norte 0 -- -- 94
2019-06-18 22:00:00 16.1 3 Nordeste 12 Nordeste 0 -- -- 93
2019-06-18 21:00:00 17.1 3 Norte 12 Nordeste 0 -- -- 92
2019-06-18 20:00:00 17.6 4 Norte 14 Noroeste 0 -- -- 91
2019-06-18 19:00:00 18.3 2 Nordeste 8 Sur 0 -- -- 89
2019-06-18 18:00:00 19 4 Sudeste 13 Sur 0 -- -- 85
2019-06-18 17:00:00 19.8 6 Sudeste 17 Sudeste 0 -- -- 81
2019-06-18 16:00:00 19.3 6 Sur 15 Sudeste 0 -- -- 81
2019-06-18 15:00:00 19.4 6 Sudeste 17 Sur 0 -- -- 82
2019-06-18 14:00:00 19.7 3 Sudeste 11 Sudeste 0 -- -- 83
2019-06-18 13:00:00 20.5 4 Sudeste 14 Norte 0 -- -- 80
2019-06-18 12:00:00 20.8 7 Norte 14 Noroeste 0 -- -- 76
2019-06-18 11:00:00 19.6 4 Norte 9 Noroeste 0 -- -- 85
2019-06-18 10:00:00 19.3 3 Oeste 15 Noroeste 0 -- -- 84
2019-06-18 09:00:00 18 9 Noroeste 29 Norte 0 -- -- 88
2019-06-18 08:00:00 17 23 Noroeste 30 Noroeste 0 -- -- 89
2019-06-18 07:00:00 16.6 15 Noroeste 30 Noroeste 0 -- -- 94
2019-06-18 06:00:00 15.9 3 Sudoeste 7 Sudoeste 0 -- -- 86
2019-06-18 05:00:00 15.8 5 Sudoeste 10 Noroeste 0 -- -- 83
2019-06-18 04:00:00 16 5 Sudoeste 9 Sudoeste 0 -- -- 84
2019-06-18 03:00:00 15.9 3 Oeste 11 Noroeste 0 -- -- 82
2019-06-18 02:00:00 15.9 6 Noroeste 10 Norte 0 -- -- 83
2019-06-18 01:00:00 16.1 7 Norte 13 Noroeste 0 -- -- 82
2019-06-18 00:00:00 16.1 9 Norte 22 Noroeste 0 -- -- 87
2019-06-17 23:00:00 16.2 13 Noroeste 27 Noroeste 0 -- -- 89
2019-06-17 22:00:00 16.8 19 Noroeste 45 Noroeste 0 -- -- 82
2019-06-17 21:00:00 17.4 22 Noroeste 35 Noroeste 0 -- -- 81
2019-06-17 20:00:00 20.1 15 Noroeste 25 Oeste 0 -- -- 66
2019-06-17 19:00:00 22.4 9 Noroeste 19 Noroeste 0 -- -- 61
2019-06-17 18:00:00 23.5 5 Norte 18 Norte 0 -- -- 58
2019-06-17 17:00:00 22.6 5 Nordeste 15 Nordeste 0 -- -- 65
2019-06-17 16:00:00 23.1 5 Nordeste 17 Norte 0 -- -- 64
2019-06-17 15:00:00 21.9 4 Nordeste 13 Nordeste 0 -- -- 66
2019-06-17 14:00:00 21.5 5 Nordeste 15 Norte 0 -- -- 64
2019-06-17 13:00:00 22 7 Norte 18 Norte 0 -- -- 64
2019-06-17 12:00:00 20.5 5 Nordeste 16 Norte 0 -- -- 68
2019-06-17 11:00:00 20.6 6 Norte 14 Nordeste 0 -- -- 67
2019-06-17 10:00:00 18.8 7 Norte 23 Noroeste 0 -- -- 67
2019-06-17 09:00:00 17.3 6 Norte 24 Norte 0 -- -- 67
2019-06-17 08:00:00 15.1 12 Noroeste 20 Noroeste 0 -- -- 66
2019-06-17 07:00:00 13.9 6 Oeste 12 Noroeste 0 -- -- 73
2019-06-17 06:00:00 13.6 6 Norte 13 Norte 0 -- -- 77
2019-06-17 05:00:00 14.2 5 Norte 6 Norte 0 -- -- 72
2019-06-17 04:00:00 14.1 5 Sudoeste 10 Sudoeste 0 -- -- 71
2019-06-17 03:00:00 13.7 2 Oeste 5 Sudoeste 0 -- -- 75
2019-06-17 02:00:00 13.6 4 Sudoeste 5 Sudoeste 0 -- -- 80
2019-06-17 01:00:00 13.4 0 Calma 6 Norte 0 -- -- 76
2019-06-17 00:00:00 13.7 4 Sudoeste 7 Sudoeste 0 -- -- 75
2019-06-16 23:00:00 13.9 0 Calma 6 Norte 0 -- -- 76
2019-06-16 22:00:00 14.3 3 Noroeste 5 Noroeste 0 -- -- 82
2019-06-16 21:00:00 15.7 2 Norte 11 Nordeste 0 -- -- 75
2019-06-16 20:00:00 17.7 5 Norte 13 Noroeste 0 -- -- 66
2019-06-16 19:00:00 19.6 5 Norte 15 Norte 0 -- -- 61
2019-06-16 18:00:00 20 5 Norte 16 Este 0 -- -- 58
2019-06-16 17:00:00 20.5 4 Noroeste 12 Oeste 0 -- -- 57
2019-06-16 16:00:00 21.1 4 Oeste 14 Este 0 -- -- 56
2019-06-16 15:00:00 20.8 5 Sudeste 14 Este 0 -- -- 59
2019-06-16 14:00:00 20.1 4 Sudoeste 14 Sudeste 0 -- -- 57
2019-06-16 13:00:00 19.2 6 Sudoeste 13 Sudoeste 0 -- -- 65
2019-06-16 12:00:00 18.4 4 Sudeste 14 Norte 0 -- -- 67
2019-06-16 11:00:00 17.5 6 Norte 13 Norte 0 -- -- 69
2019-06-16 10:00:00 16.3 5 Norte 13 Norte 0 -- -- 74
2019-06-16 09:00:00 14.4 5 Norte 15 Norte 0 -- -- 80
2019-06-16 08:00:00 12.5 9 Noroeste 15 Noroeste 0 -- -- 83
2019-06-16 07:00:00 11.9 10 Noroeste 15 Noroeste 0 -- -- 84
2019-06-16 06:00:00 12.2 12 Noroeste 17 Noroeste 0 -- -- 80
2019-06-16 05:00:00 12.1 11 Noroeste 16 Norte 0 -- -- 82
2019-06-16 04:00:00 11.9 7 Noroeste 12 Noroeste 0 -- -- 82
2019-06-16 03:00:00 12.1 6 Noroeste 14 Noroeste 0 -- -- 83
2019-06-16 02:00:00 12.1 10 Noroeste 13 Noroeste 0 -- -- 86
2019-06-16 01:00:00 11.9 8 Norte 12 Noroeste 0 -- -- 87
2019-06-16 00:00:00 11.9 7 Norte 10 Norte 0 -- -- 89
2019-06-15 23:00:00 12.1 5 Norte 8 Noroeste 0 -- -- 89
2019-06-15 22:00:00 12.9 5 Norte 9 Norte 0 -- -- 91
2019-06-15 21:00:00 14.1 4 Norte 8 Norte 0 -- -- 88
2019-06-15 20:00:00 15.8 4 Nordeste 12 Norte 0 -- -- 82
2019-06-15 19:00:00 16.2 2 Nordeste 9 Norte 0 -- -- 82
2019-06-15 18:00:00 14.9 3 Sur 9 Sudeste 0 -- -- 89
2019-06-15 17:00:00 15 3 Este 9 Sur 0 -- -- 88
2019-06-15 16:00:00 15.5 2 Sudeste 10 Sudeste 0 -- -- 85
2019-06-15 15:00:00 15.2 3 Sudoeste 10 Sudeste 0 -- -- 84
2019-06-15 14:00:00 14.8 3 Noroeste 12 Norte 0 -- -- 85
2019-06-15 13:00:00 14.5 3 Norte 11 Nordeste 0 -- -- 87
2019-06-15 12:00:00 14.6 4 Norte 12 Nordeste 0 -- -- 90
2019-06-15 11:00:00 14.2 3 Oeste 15 Oeste 0 -- -- 90
2019-06-15 10:00:00 15.3 5 Oeste 15 Norte 0 -- -- 85
2019-06-15 09:00:00 12.8 3 Norte 15 Noroeste 0 -- -- 97
2019-06-15 08:00:00 11.9 7 Norte 17 Norte 0 -- -- 98
2019-06-15 07:00:00 11.8 3 Norte 10 Noroeste 0 -- -- 96
2019-06-15 06:00:00 12 4 Norte 9 Sur 0 -- -- 96
2019-06-15 05:00:00 12.2 4 Sur 12 Sudeste 0 -- -- 96
2019-06-15 04:00:00 12.2 3 Sur 10 Este 0 -- -- 95
2019-06-15 03:00:00 12.5 2 Sur 16 Norte 0 -- -- 96
2019-06-15 02:00:00 12.9 2 Sur 11 Nordeste 0 -- -- 95
2019-06-15 01:00:00 13 2 Sur 12 Este 0 -- -- 95
2019-06-15 00:00:00 13.3 2 Sur 9 Este 0 -- -- 95
2019-06-14 23:00:00 13.3 2 Sur 9 Este 0 -- -- 93
2019-06-14 22:00:00 13.3 3 Norte 10 Norte 0 -- -- 92
2019-06-14 21:00:00 13.9 2 Nordeste 11 Norte 0 -- -- 85
2019-06-14 20:00:00 15.4 5 Sudeste 13 Sudeste 0 -- -- 77
2019-06-14 19:00:00 16.5 4 Este 13 Sudeste 0 -- -- 77
2019-06-14 18:00:00 16.1 4 Sudeste 17 Sudeste 0 -- -- 81
2019-06-14 17:00:00 16.3 5 Sudoeste 15 Nordeste 0 -- -- 81
2019-06-14 16:00:00 17.2 4 Este 18 Sudeste 0 -- -- 78
2019-06-14 15:00:00 17.3 5 Sudeste 13 Sudeste 0 -- -- 74
2019-06-14 14:00:00 16.3 7 Este 17 Sudeste 0 -- -- 75
2019-06-14 13:00:00 16.3 6 Este 19 Este 0 -- -- 77
2019-06-14 12:00:00 17.1 7 Este 18 Sudeste 0 -- -- 68
2019-06-14 11:00:00 15.4 5 Este 13 Sudeste 0 -- -- 76
2019-06-14 10:00:00 14.7 6 Este 13 Este 0 -- -- 85
2019-06-14 09:00:00 13.2 4 Este 10 Sudeste 0 -- -- 93
2019-06-14 08:00:00 12.9 2 Sudeste 12 Nordeste 0 -- -- 98
2019-06-14 07:00:00 12.8 4 Sudeste 13 Nordeste 0 -- -- 98
2019-06-14 06:00:00 12.5 3 Sudeste 11 Sudeste 0 -- -- 96
2019-06-14 05:00:00 12.4 5 Sudoeste 13 Norte 0 -- -- 97
2019-06-14 04:00:00 12.5 4 Norte 10 Norte 0 -- -- 96
2019-06-14 03:00:00 12.6 3 Sur 10 Sudeste 0 -- -- 97
2019-06-14 02:00:00 12.5 6 Sudeste 11 Sudeste 0 -- -- 96
2019-06-14 01:00:00 13.4 5 Sudeste 16 Sudeste 0 -- -- 97
2019-06-14 00:00:00 13.6 8 Sudeste 19 Este 0 -- -- 97
2019-06-13 23:00:00 13.7 4 Sudeste 14 Este 0 -- -- 96
2019-06-13 22:00:00 13.7 5 Sur 14 Este 0 -- -- 94
2019-06-13 21:00:00 14 3 Noroeste 12 Este 0 -- -- 89
2019-06-13 20:00:00 14.6 6 Sudeste 14 Este 0 -- -- 87
2019-06-13 19:00:00 15.7 4 Sudeste 11 Este 0 -- -- 82
2019-06-13 18:00:00 17.8 5 Oeste 19 Nordeste 0 -- -- 74
2019-06-13 17:00:00 19.1 7 Norte 17 Norte 0 -- -- 63
2019-06-13 16:00:00 18.7 6 Este 17 Sudeste 0 -- -- 59
2019-06-13 15:00:00 18.4 5 Nordeste 15 Sudeste 0 -- -- 62
2019-06-13 14:00:00 18.5 5 Este 26 Este 0 -- -- 63
2019-06-13 13:00:00 17.3 5 Este 20 Este 0 -- -- 71
2019-06-13 12:00:00 16.5 5 Sur 13 Este 0 -- -- 81
2019-06-13 11:00:00 15.2 4 Sudoeste 15 Sudeste 0 -- -- 91
2019-06-13 10:00:00 13.6 5 Sudeste 14 Sudeste 0 -- -- 100
2019-06-13 09:00:00 12.9 5 Sur 14 Este 0 -- -- 100
2019-06-13 08:00:00 12.8 4 Sudeste 18 Nordeste 0 -- -- 100
2019-06-13 07:00:00 12.5 6 Sudeste 13 Este 0 -- -- 100
2019-06-13 06:00:00 12.6 4 Este 14 Nordeste 0 -- -- 100
2019-06-13 05:00:00 12.7 3 Sur 14 Nordeste 0 -- -- 100
2019-06-13 04:00:00 12.5 5 Sudoeste 11 Sudoeste 0 -- -- 100
2019-06-13 03:00:00 12.8 4 Sur 18 Sudeste 0 -- -- 100
2019-06-13 02:00:00 12.8 5 Sudoeste 12 Sudoeste 0 -- -- 100
2019-06-13 01:00:00 13 5 Sudoeste 14 Sur 0 -- -- 100
2019-06-13 00:00:00 13.3 6 Sudoeste 12 Sudoeste 0 -- -- 100
2019-06-12 23:00:00 13.6 6 Sur 21 Este 0 -- -- 100
2019-06-12 22:00:00 14.1 4 Sudeste 19 Sur 0 -- -- 100
2019-06-12 21:00:00 14.2 8 Sudeste 18 Nordeste 0 -- -- 99
2019-06-12 20:00:00 14.3 5 Este 16 Este 0 -- -- 98
2019-06-12 19:00:00 14.8 4 Norte 15 Norte 0 -- -- 94
2019-06-12 18:00:00 16.2 6 Norte 21 Norte 0 -- -- 93
2019-06-12 17:00:00 15.6 6 Nordeste 14 Norte 0 -- -- 100
2019-06-12 16:00:00 15.3 4 Este 18 Nordeste 0 -- -- 100
2019-06-12 15:00:00 15.6 4 Oeste 15 Este 0 -- -- 100
2019-06-12 14:00:00 15.1 4 Sur 20 Nordeste 0 -- -- 100
2019-06-12 13:00:00 14.5 8 Este 23 Nordeste 0.2 -- -- 100
2019-06-12 12:00:00 15 6 Sudoeste 19 Este 1 -- -- 100
2019-06-12 11:00:00 14.8 6 Sur 17 Sudeste 0.8 -- -- 100
2019-06-12 10:00:00 14.7 5 Sur 23 Oeste 0.4 -- -- 100
2019-06-12 09:00:00 14.1 5 Sudeste 24 Este 1.8 -- -- 100
2019-06-12 08:00:00 14.1 6 Sur 15 Este 3 -- -- 100
2019-06-12 07:00:00 14.2 5 Este 15 Sudeste 1 -- -- 100
2019-06-12 06:00:00 14 7 Sudeste 17 Norte 0 -- -- 100
2019-06-12 05:00:00 13.9 4 Sudoeste 16 Este 0 -- -- 100
2019-06-12 04:00:00 14.2 6 Sudeste 19 Este 0 -- -- 100
2019-06-12 03:00:00 14.1 7 Sudeste 25 Este 0 -- -- 100
2019-06-12 02:00:00 13.9 5 Sur 17 Nordeste 0 -- -- 100
2019-06-12 01:00:00 14.2 6 Sudeste 21 Sudeste 0 -- -- 100
2019-06-12 00:00:00 14.2 5 Sur 17 Nordeste 0 -- -- 100
2019-06-11 23:00:00 14.4 7 Este 19 Este 0 -- -- 100
2019-06-11 22:00:00 14.2 4 Sur 23 Nordeste 0 -- -- 100
2019-06-11 21:00:00 14.3 6 Oeste 20 Nordeste 0 -- -- 100
2019-06-11 20:00:00 14.8 5 Sur 24 Nordeste 0 -- -- 100
2019-06-11 19:00:00 14.7 8 Sur 25 Este 0 -- -- 100
2019-06-11 18:00:00 15.6 6 Sudoeste 23 Sudeste 1.4 -- -- 99
2019-06-11 17:00:00 15.6 6 Sur 21 Sur 0.2 -- -- 97
2019-06-11 16:00:00 15.8 5 Sudoeste 18 Nordeste 0 -- -- 95
2019-06-11 15:00:00 16.6 6 Sudoeste 18 Este 0 -- -- 92
2019-06-11 14:00:00 17.6 6 Sudoeste 20 Sudoeste 0 -- -- 86
2019-06-11 13:00:00 16 4 Sudoeste 13 Nordeste 0 -- -- 93
2019-06-11 12:00:00 16 5 Sur 19 Este 0 -- -- 90
2019-06-11 11:00:00 15.6 6 Sur 17 Sudeste 0 -- -- 90
2019-06-11 10:00:00 14.2 5 Sudeste 22 Sudeste 0 -- -- 98
2019-06-11 09:00:00 13.3 7 Este 21 Nordeste 0 -- -- 99
2019-06-11 08:00:00 12.8 7 Sudeste 19 Sudeste 0 -- -- 100
2019-06-11 07:00:00 12.8 7 Sur 20 Sur 0 -- -- 100
2019-06-11 06:00:00 12.7 6 Sur 19 Este 0 -- -- 100
2019-06-11 05:00:00 12.6 8 Sudeste 22 Este 0 -- -- 99
2019-06-11 04:00:00 12.7 6 Sudeste 19 Sudeste 0 -- -- 99
2019-06-11 03:00:00 13 8 Sudeste 20 Sur 0 -- -- 100
2019-06-11 02:00:00 13.3 8 Sur 17 Este 0 -- -- 100
2019-06-11 01:00:00 13.2 6 Sur 18 Sur 0 -- -- 99
2019-06-11 00:00:00 13.6 9 Sudeste 23 Sudeste 0 -- -- 99
2019-06-10 23:00:00 14.1 10 Sur 19 Sur 0 -- -- 99
2019-06-10 22:00:00 14 7 Sur 21 Este 0 -- -- 98
2019-06-10 21:00:00 14.1 6 Sudeste 19 Sur 0 -- -- 97
2019-06-10 20:00:00 14.7 8 Sur 21 Sur 0 -- -- 95
2019-06-10 19:00:00 15.2 6 Sudeste 17 Noroeste 0 -- -- 89
2019-06-10 18:00:00 15.6 6 Sudeste 24 Este 0 -- -- 89
2019-06-10 17:00:00 16.1 8 Este 26 Sudeste 0 -- -- 89
2019-06-10 16:00:00 18.1 6 Este 24 Sudeste 0 -- -- 77
2019-06-10 15:00:00 18.2 7 Este 21 Este 0 -- -- 73
2019-06-10 14:00:00 19.2 6 Sudeste 23 Sur 0 -- -- 68
2019-06-10 13:00:00 18 8 Este 24 Sudeste 0 -- -- 72
2019-06-10 12:00:00 16.1 5 Este 14 Sudeste 0 -- -- 85
2019-06-10 11:00:00 14.6 6 Sudeste 17 Este 0 -- -- 92
2019-06-10 10:00:00 14 5 Sudeste 19 Sudeste 0 -- -- 94
2019-06-10 09:00:00 13.3 4 Sur 13 Nordeste 0 -- -- 95
2019-06-10 08:00:00 12.7 6 Sudeste 18 Sudeste 0 -- -- 94
2019-06-10 07:00:00 12.6 5 Sur 18 Sudeste 0 -- -- 95
2019-06-10 06:00:00 12.8 6 Sudeste 20 Este 0 -- -- 96
2019-06-10 05:00:00 13 4 Este 17 Este 0 -- -- 96
2019-06-10 04:00:00 12.7 5 Sudeste 17 Sudeste 0 -- -- 95
2019-06-10 03:00:00 12.8 6 Sudeste 19 Este 0 -- -- 95
2019-06-10 02:00:00 12.9 5 Sur 22 Este 0 -- -- 95
2019-06-10 01:00:00 13 6 Sudeste 16 Sudeste 0 -- -- 94
2019-06-10 00:00:00 13 4 Sudeste 17 Este 0 -- -- 93
2019-06-09 23:00:00 13.1 6 Sudeste 21 Nordeste 0 -- -- 93
2019-06-09 22:00:00 13.5 6 Sur 21 Sudeste 0 -- -- 94
2019-06-09 21:00:00 13.6 7 Sudeste 18 Este 0 -- -- 92
2019-06-09 20:00:00 14.1 5 Sur 18 Este 0 -- -- 91
2019-06-09 19:00:00 15.3 6 Sur 17 Sudeste 0 -- -- 84
2019-06-09 18:00:00 15 6 Sudeste 19 Este 0 -- -- 86
2019-06-09 17:00:00 16.4 5 Este 19 Sudeste 0 -- -- 82
2019-06-09 16:00:00 18.5 6 Sudeste 20 Sur 0 -- -- 72
2019-06-09 15:00:00 18.1 6 Sur 21 Sur 0 -- -- 69
2019-06-09 14:00:00 16.5 6 Este 17 Sur 0 -- -- 80
2019-06-09 13:00:00 16.8 6 Sudeste 23 Sudeste 0 -- -- 72
2019-06-09 12:00:00 16.7 6 Este 21 Sur 0 -- -- 71
2019-06-09 11:00:00 15.3 6 Este 21 Sudeste 0 -- -- 80
2019-06-09 10:00:00 14.6 7 Este 20 Sudeste 0 -- -- 85
2019-06-09 09:00:00 12.8 9 Sudeste 25 Este 0 -- -- 97
2019-06-09 08:00:00 12.7 7 Sudeste 20 Sudeste 0 -- -- 96
2019-06-09 07:00:00 12.3 6 Sudeste 16 Este 0 -- -- 93
2019-06-09 06:00:00 11.8 5 Sudeste 17 Nordeste 0 -- -- 94
2019-06-09 05:00:00 12.5 6 Sudeste 19 Este 0 -- -- 96
2019-06-09 04:00:00 12.7 6 Sudeste 18 Sudeste 0 -- -- 97
2019-06-09 03:00:00 12.8 6 Este 21 Sudeste 0 -- -- 96
2019-06-09 02:00:00 12.9 6 Sudeste 17 Sudeste 0 -- -- 96
2019-06-09 01:00:00 12.9 6 Sudeste 19 Sudeste 0 -- -- 95
2019-06-09 00:00:00 12.9 6 Sur 20 Sur 0 -- -- 94
2019-06-08 23:00:00 13.1 6 Sudeste 24 Este 0 -- -- 95
2019-06-08 22:00:00 13.4 6 Sudeste 17 Sudeste 0 -- -- 95
2019-06-08 21:00:00 13.7 8 Sudeste 16 Sudeste 0 -- -- 95
2019-06-08 20:00:00 14.1 8 Sur 15 Sudeste 0 -- -- 91
2019-06-08 19:00:00 14.6 6 Sur 16 Sudeste 0 -- -- 88
2019-06-08 18:00:00 15.5 4 Sudoeste 13 Este 0 -- -- 85
2019-06-08 17:00:00 15.6 5 Sur 18 Nordeste 0 -- -- 87
2019-06-08 16:00:00 15.5 5 Nordeste 22 Este 0 -- -- 88
2019-06-08 15:00:00 16.1 6 Sudeste 21 Nordeste 0 -- -- 86
2019-06-08 14:00:00 16.5 7 Este 21 Sudeste 0 -- -- 89
2019-06-08 13:00:00 15.6 10 Sudeste 22 Sudeste 0 -- -- 98
2019-06-08 12:00:00 14.8 13 Sudeste 28 Este 0 -- -- 100
2019-06-08 11:00:00 14.7 9 Este 23 Este 0 -- -- 100
2019-06-08 10:00:00 14.8 11 Este 33 Sudeste 0 -- -- 100
2019-06-08 09:00:00 14.1 7 Este 23 Sudeste 0 -- -- 100
2019-06-08 08:00:00 14.6 8 Sudeste 23 Este 0.2 -- -- 100
2019-06-08 07:00:00 14.6 5 Sudeste 26 Este 0 -- -- 100
2019-06-08 06:00:00 14.7 7 Este 27 Sudeste 0.4 -- -- 100
2019-06-08 05:00:00 15 7 Sudeste 23 Sudeste 0 -- -- 99
2019-06-08 04:00:00 14.7 5 Sudeste 17 Nordeste 0 -- -- 99
2019-06-08 03:00:00 14.8 7 Sudeste 20 Este 0 -- -- 98
2019-06-08 02:00:00 14.7 5 Sur 13 Nordeste 0 -- -- 98
2019-06-08 01:00:00 14.2 5 Este 13 Nordeste 0 -- -- 97
2019-06-08 00:00:00 14.7 3 Sur 14 Este 0 -- -- 97
2019-06-07 23:00:00 15.1 5 Sudeste 17 Sudeste 0 -- -- 96
2019-06-07 22:00:00 14.9 3 Sudeste 13 Sudeste 0 -- -- 95
2019-06-07 21:00:00 15.2 4 Sudoeste 16 Este 0 -- -- 91
2019-06-07 20:00:00 16 3 Sudeste 12 Este 0 -- -- 88
2019-06-07 19:00:00 17.6 3 Sur 13 Noroeste 0 -- -- 76
2019-06-07 18:00:00 19.6 5 Este 14 Sudeste 0 -- -- 64
2019-06-07 17:00:00 19.6 5 Sudoeste 16 Este 0 -- -- 67
2019-06-07 16:00:00 19 6 Sudeste 19 Sudeste 0 -- -- 70
2019-06-07 15:00:00 19.5 4 Sudeste 19 Sudeste 0 -- -- 67
2019-06-07 14:00:00 19.1 6 Sudeste 22 Sudeste 0 -- -- 66
2019-06-07 13:00:00 17.5 6 Sudeste 16 Este 0 -- -- 72
2019-06-07 12:00:00 15.9 6 Sudeste 23 Sudeste 0 -- -- 85
2019-06-07 11:00:00 15.1 9 Sudeste 22 Sudeste 0 -- -- 91
2019-06-07 10:00:00 14 6 Sudeste 16 Este 0 -- -- 94
2019-06-07 09:00:00 13.8 3 Sudeste 13 Norte 0 -- -- 94
2019-06-07 08:00:00 13.1 5 Sur 13 Sur 0 -- -- 98
2019-06-07 07:00:00 13 4 Sudoeste 18 Norte 0 -- -- 98
2019-06-07 06:00:00 12.9 3 Sudeste 12 Nordeste 0 -- -- 97
2019-06-07 05:00:00 12.7 5 Sudeste 14 Sudeste 0 -- -- 95
2019-06-07 04:00:00 12.7 4 Sur 12 Norte 0 -- -- 95
2019-06-07 03:00:00 12.7 5 Este 15 Sudeste 0 -- -- 95
2019-06-07 02:00:00 12.9 4 Este 14 Sudeste 0 -- -- 94
2019-06-07 01:00:00 12.2 6 Sudoeste 12 Este 0 -- -- 93
2019-06-07 00:00:00 12.5 6 Sur 15 Sudeste 0 -- -- 91
2019-06-06 23:00:00 12.8 5 Sudeste 14 Norte 0 -- -- 89
2019-06-06 22:00:00 13.3 5 Sur 20 Este 0 -- -- 88
2019-06-06 21:00:00 13.6 7 Sudeste 20 Nordeste 0 -- -- 84
2019-06-06 20:00:00 15 5 Sudoeste 14 Sur 0 -- -- 76
2019-06-06 19:00:00 16.8 4 Sur 14 Sudoeste 0 -- -- 74
2019-06-06 18:00:00 17.3 5 Este 15 Este 0 -- -- 74
2019-06-06 17:00:00 17.7 5 Sur 15 Sur 0 -- -- 72
2019-06-06 16:00:00 17 5 Oeste 15 Este 0 -- -- 76
2019-06-06 15:00:00 14.9 6 Sudeste 19 Sudeste 0 -- -- 85
2019-06-06 14:00:00 16.1 8 Sudeste 20 Sudeste 0 -- -- 79
2019-06-06 13:00:00 17.4 8 Sudeste 19 Sudeste 0 -- -- 74
2019-06-06 12:00:00 16.1 5 Sur 17 Sur 0 -- -- 82
2019-06-06 11:00:00 14 7 Sur 21 Sudeste 0 -- -- 87
2019-06-06 10:00:00 13.3 6 Sur 20 Sudeste 0 -- -- 93
2019-06-06 09:00:00 12.6 6 Sur 18 Este 0 -- -- 97
2019-06-06 08:00:00 12.3 8 Sur 17 Sur 0 -- -- 98
2019-06-06 07:00:00 12.3 7 Sur 17 Sur 0 -- -- 99
2019-06-06 06:00:00 12.7 8 Sur 19 Este 0.2 -- -- 100
2019-06-06 05:00:00 13.3 6 Sudeste 22 Sudeste 0 -- -- 100
2019-06-06 04:00:00 13.3 6 Sudeste 18 Este 0 -- -- 100
2019-06-06 03:00:00 13.6 4 Sudoeste 14 Sudeste 0 -- -- 99
2019-06-06 02:00:00 13.8 5 Sur 20 Sudeste 0 -- -- 99
2019-06-06 01:00:00 13.9 5 Sur 18 Noroeste 0 -- -- 99
2019-06-06 00:00:00 13.8 6 Sudeste 23 Sur 0 -- -- 99
2019-06-05 23:00:00 14.3 8 Sudeste 20 Este 0 -- -- 99
2019-06-05 22:00:00 14.3 6 Sudeste 24 Nordeste 0 -- -- 98
2019-06-05 21:00:00 14.5 5 Sudeste 19 Nordeste 0 -- -- 97
2019-06-05 20:00:00 15 7 Sur 14 Nordeste 0 -- -- 95
2019-06-05 19:00:00 15.9 5 Sudeste 17 Sudeste 0 -- -- 92
2019-06-05 18:00:00 16.1 6 Sur 21 Este 0 -- -- 91
2019-06-05 17:00:00 16.7 8 Oeste 25 Sudeste 0 -- -- 83
2019-06-05 16:00:00 17.8 8 Este 23 Sudeste 0 -- -- 81
2019-06-05 15:00:00 19.7 9 Sudeste 25 Este 0 -- -- 68
2019-06-05 14:00:00 19.2 10 Sudeste 25 Sudeste 0 -- -- 73
2019-06-05 13:00:00 17.4 7 Sudeste 21 Sudeste 0 -- -- 83
2019-06-05 12:00:00 15.9 11 Sudeste 31 Sudeste 0 -- -- 97
2019-06-05 11:00:00 16 6 Sur 19 Nordeste 0 -- -- 94
2019-06-05 10:00:00 16.1 5 Sur 13 Este 0 -- -- 90
2019-06-05 09:00:00 15.8 4 Este 14 Este 0 -- -- 92
2019-06-05 08:00:00 14.6 5 Este 17 Este 0 -- -- 97
2019-06-05 07:00:00 14.1 5 Este 23 Nordeste 0 -- -- 98
2019-06-05 06:00:00 14.6 4 Este 15 Este 0 -- -- 98
2019-06-05 05:00:00 14.7 7 Este 20 Sudeste 0 -- -- 97
2019-06-05 04:00:00 14.9 6 Este 22 Nordeste 0 -- -- 97
2019-06-05 03:00:00 14.9 5 Sudoeste 21 Sudeste 0 -- -- 97
2019-06-05 02:00:00 15.1 5 Sudeste 14 Norte 0 -- -- 96
2019-06-05 01:00:00 15 4 Sudeste 19 Noroeste 0 -- -- 95
2019-06-05 00:00:00 14.9 6 Este 19 Este 0 -- -- 94
2019-06-04 23:00:00 15.2 4 Sur 11 Sur 0 -- -- 93
2019-06-04 22:00:00 15.5 3 Sudeste 13 Este 0 -- -- 91
2019-06-04 21:00:00 15.9 4 Sudeste 12 Sudeste 0 -- -- 86
2019-06-04 20:00:00 18.2 4 Norte 11 Norte 0 -- -- 73
2019-06-04 19:00:00 20.3 8 Norte 15 Norte 0 -- -- 66
2019-06-04 18:00:00 23.3 3 Este 12 Sudoeste 0 -- -- 43
2019-06-04 17:00:00 23.5 4 Norte 12 Nordeste 0 -- -- 36
2019-06-04 16:00:00 23.2 4 Sur 15 Este 0 -- -- 52
2019-06-04 15:00:00 23.5 6 Sudeste 14 Sudeste 0 -- -- 47
2019-06-04 14:00:00 23.6 6 Sur 14 Este 0 -- -- 45
2019-06-04 13:00:00 23.5 6 Sudeste 13 Este 0 -- -- 44
2019-06-04 12:00:00 23 6 Sudeste 15 Sudeste 0 -- -- 34
2019-06-04 11:00:00 21.4 6 Este 14 Este 0 -- -- 33
2019-06-04 10:00:00 20.8 5 Este 17 Este 0 -- -- 36
2019-06-04 09:00:00 19.9 6 Sudeste 21 Sudeste 0 -- -- 36
2019-06-04 08:00:00 17.9 8 Este 21 Este 0 -- -- 37
2019-06-04 07:00:00 17.1 10 Este 21 Nordeste 0 -- -- 40
2019-06-04 06:00:00 16.8 5 Este 18 Nordeste 0 -- -- 41
2019-06-04 05:00:00 17.7 9 Este 24 Sudeste 0 -- -- 38
2019-06-04 04:00:00 18.1 5 Sudeste 24 Sudeste 0 -- -- 33
2019-06-04 03:00:00 19 9 Sudeste 24 Este 0 -- -- 31
2019-06-04 02:00:00 19.3 9 Este 21 Este 0 -- -- 31
2019-06-04 01:00:00 19.7 10 Este 28 Este 0 -- -- 29
2019-06-04 00:00:00 19.9 10 Este 23 Este 0 -- -- 29
2019-06-03 23:00:00 19.5 6 Este 21 Sudeste 0 -- -- 38
2019-06-03 22:00:00 20.1 8 Este 24 Nordeste 0 -- -- 37
2019-06-03 21:00:00 20.1 10 Nordeste 24 Nordeste 0 -- -- 37
2019-06-03 20:00:00 21.9 9 Este 23 Nordeste 0 -- -- 32
2019-06-03 19:00:00 23.9 6 Este 27 Este 0 -- -- 37
2019-06-03 18:00:00 25.9 6 Sudeste 21 Sudeste 0 -- -- 37
2019-06-03 17:00:00 27.2 6 Sudeste 19 Este 0 -- -- 33
2019-06-03 16:00:00 28.1 8 Sudeste 27 Sudeste 0 -- -- 30
2019-06-03 15:00:00 27.9 7 Sudeste 20 Sudeste 0 -- -- 27
2019-06-03 14:00:00 27.4 5 Este 22 Sur 0 -- -- 27
2019-06-03 13:00:00 27.6 8 Sur 27 Sudeste 0 -- -- 26
2019-06-03 12:00:00 26.8 11 Este 25 Este 0 -- -- 27
2019-06-03 11:00:00 25.2 7 Sur 26 Sudeste 0 -- -- 32
2019-06-03 10:00:00 23.6 8 Sur 33 Sudeste 0 -- -- 33
2019-06-03 09:00:00 22.1 8 Sudeste 22 Sudeste 0 -- -- 34
2019-06-03 08:00:00 21.3 5 Este 30 Este 0 -- -- 32
2019-06-03 07:00:00 20.1 7 Sudeste 21 Este 0 -- -- 31
2019-06-03 06:00:00 19.5 4 Sudeste 30 Este 0 -- -- 34
2019-06-03 05:00:00 18.7 10 Sur 23 Este 0 -- -- 38
2019-06-03 04:00:00 18.4 12 Sudeste 29 Sudeste 0 -- -- 41
2019-06-03 03:00:00 19.1 7 Sudeste 24 Este 0 -- -- 50
2019-06-03 02:00:00 17.5 5 Sudeste 17 Este 0 -- -- 64
2019-06-03 01:00:00 18.5 8 Sudeste 35 Sudeste 0 -- -- 60
2019-06-03 00:00:00 20.5 10 Sur 35 Sudeste 0 -- -- 44
2019-06-02 23:00:00 20.9 6 Sudeste 18 Sudeste 0 -- -- 45
2019-06-02 22:00:00 20.5 5 Sur 24 Este 0 -- -- 45
2019-06-02 21:00:00 21.6 7 Sudeste 22 Nordeste 0 -- -- 41
2019-06-02 20:00:00 24 7 Este 17 Este 0 -- -- 30
2019-06-02 19:00:00 26.7 6 Este 17 Sudeste 0 -- -- 23
2019-06-02 18:00:00 27.3 3 Sudeste 12 Este 0 -- -- 25
2019-06-02 17:00:00 26.4 8 Norte 20 Norte 0 -- -- 28
2019-06-02 16:00:00 28.7 6 Norte 13 Norte 0 -- -- 43
2019-06-02 15:00:00 27 5 Norte 19 Norte 0 -- -- 53
2019-06-02 14:00:00 27.9 6 Norte 18 Norte 0 -- -- 49
2019-06-02 13:00:00 29.2 13 Norte 20 Norte 0 -- -- 32
2019-06-02 12:00:00 27.4 13 Norte 19 Norte 0 -- -- 32
2019-06-02 11:00:00 24.9 13 Norte 23 Sur 0 -- -- 39
2019-06-02 10:00:00 26.8 17 Sur 28 Sur 0 -- -- 29
2019-06-02 09:00:00 24.3 17 Sur 30 Sur 0 -- -- 36
2019-06-02 08:00:00 24.2 15 Sur 30 Sur 0 -- -- 30
2019-06-02 07:00:00 23.4 18 Sur 42 Sur 0 -- -- 31
2019-06-02 06:00:00 21.5 22 Sur 29 Sur 0 -- -- 37
2019-06-02 05:00:00 20.6 12 Sudoeste 17 Sudoeste 0 -- -- 39
2019-06-02 04:00:00 20.6 5 Sudoeste 11 Sudoeste 0 -- -- 43
2019-06-02 03:00:00 19.6 7 Sudeste 22 Sur 0 -- -- 49
2019-06-02 02:00:00 16.6 18 Sur 24 Sur 0 -- -- 71
2019-06-02 01:00:00 14.8 4 Sudeste 8 Este 0 -- -- 96
2019-06-02 00:00:00 14.9 3 Sudeste 9 Norte 0 -- -- 95
2019-06-01 23:00:00 14.9 4 Norte 10 Norte 0 -- -- 94
2019-06-01 22:00:00 14.8 3 Norte 9 Nordeste 0 -- -- 90
2019-06-01 21:00:00 16.2 6 Norte 15 Norte 0 -- -- 90
2019-06-01 20:00:00 20.4 4 Norte 9 Norte 0 -- -- 63
2019-06-01 19:00:00 21.7 5 Norte 9 Noroeste 0 -- -- 71
2019-06-01 18:00:00 23.8 5 Norte 10 Norte 0 -- -- 62
2019-06-01 17:00:00 22.9 4 Noroeste 10 Oeste 0 -- -- 70
2019-06-01 16:00:00 23 4 Norte 13 Sudeste 0 -- -- 69
2019-06-01 15:00:00 23.6 4 Sudeste 13 Este 0 -- -- 67
2019-06-01 14:00:00 24 7 Sudeste 13 Sur 0 -- -- 65
2019-06-01 13:00:00 22.4 5 Sudeste 12 Sur 0 -- -- 69
2019-06-01 12:00:00 18.2 6 Sur 11 Sudoeste 0 -- -- 86
2019-06-01 11:00:00 16.1 4 Sudeste 13 Sudeste 0 -- -- 92
2019-06-01 10:00:00 15.5 2 Norte 13 Norte 0 -- -- 94
2019-06-01 09:00:00 15.1 6 Norte 15 Norte 0 -- -- 92
2019-06-01 08:00:00 17.1 2 Sur 14 Norte 0 -- -- 53
2019-06-01 07:00:00 13.5 10 Nordeste 12 Nordeste 0 -- -- 94
2019-06-01 06:00:00 14.8 6 Sudoeste 9 Sudoeste 0 -- -- 49
2019-06-01 05:00:00 14.7 4 Este 9 Sudoeste 0 -- -- 78
2019-06-01 04:00:00 15.3 0 Calma 10 Sudoeste 0 -- -- 65
2019-06-01 03:00:00 17.2 5 Sur 12 Sur 0 -- -- 39
2019-06-01 02:00:00 16.3 8 Sudoeste 14 Sudoeste 0 -- -- 45
2019-06-01 01:00:00 15.1 3 Sur 15 Sudoeste 0 -- -- 78
2019-06-01 00:00:00 18 8 Sudoeste 16 Sudoeste 0 -- -- 41
2019-05-31 23:00:00 18.8 6 Sudoeste 13 Este 0 -- -- 38
2019-05-31 22:00:00 19.1 3 Nordeste 10 Este 0 -- -- 36
2019-05-31 21:00:00 17.8 2 Sudoeste 10 Norte 0 -- -- 42
2019-05-31 20:00:00 18.9 5 Norte 12 Norte 0 -- -- 79
2019-05-31 19:00:00 20 4 Norte 10 Oeste 0 -- -- 76
2019-05-31 18:00:00 19.8 4 Norte 13 Norte 0 -- -- 77
2019-05-31 17:00:00 21.1 4 Norte 11 Sur 0 -- -- 72
2019-05-31 16:00:00 23.2 5 Sur 12 Sur 0 -- -- 63
2019-05-31 15:00:00 22.7 4 Norte 10 Norte 0 -- -- 66
2019-05-31 14:00:00 22 4 Nordeste 11 Sudoeste 0 -- -- 68
2019-05-31 13:00:00 20.3 5 Norte 12 Norte 0 -- -- 73
2019-05-31 12:00:00 20.4 4 Sur 9 Sudeste 0 -- -- 73
2019-05-31 11:00:00 18.4 4 Norte 9 Norte 0 -- -- 79
2019-05-31 10:00:00 17.1 4 Norte 7 Norte 0 -- -- 83
2019-05-31 09:00:00 15.5 0 Calma 10 Norte 0 -- -- 84
2019-05-31 08:00:00 12.6 5 Norte 13 Norte 0 -- -- 99
2019-05-31 07:00:00 12.8 4 Norte 8 Norte 0 -- -- 99
2019-05-31 06:00:00 12.7 4 Norte 9 Nordeste 0 -- -- 98
2019-05-31 05:00:00 12.8 3 Norte 8 Norte 0 -- -- 97
2019-05-31 04:00:00 13.1 3 Norte 10 Nordeste 0 -- -- 97
2019-05-31 03:00:00 12.3 6 Nordeste 11 Nordeste 0 -- -- 93
2019-05-31 02:00:00 14.9 8 Sudoeste 14 Sudoeste 0 -- -- 44
2019-05-31 01:00:00 12.9 5 Sudoeste 9 Sudoeste 0 -- -- 68
2019-05-31 00:00:00 13.6 5 Noroeste 14 Norte 0 -- -- 96
2019-05-30 23:00:00 13.7 4 Norte 10 Noroeste 0 -- -- 96
2019-05-30 22:00:00 14 3 Norte 8 Oeste 0 -- -- 94
2019-05-30 21:00:00 14.3 4 Nordeste 9 Norte 0 -- -- 93
2019-05-30 20:00:00 15.2 3 Norte 12 Noroeste 0 -- -- 91
2019-05-30 19:00:00 16.2 4 Norte 13 Noroeste 0 -- -- 87
2019-05-30 18:00:00 17.1 6 Norte 16 Noroeste 0 -- -- 83
2019-05-30 17:00:00 19.1 4 Nordeste 13 Sur 0 -- -- 76
2019-05-30 16:00:00 20.4 4 Sudeste 12 Sudeste 0 -- -- 70
2019-05-30 15:00:00 20.5 4 Sudoeste 12 Sudoeste 0 -- -- 71
2019-05-30 14:00:00 20.2 4 Sur 12 Sudoeste 0 -- -- 69
2019-05-30 13:00:00 19.5 5 Sur 12 Sur 0 -- -- 73
2019-05-30 12:00:00 17.6 5 Nordeste 13 Nordeste 0 -- -- 79
2019-05-30 11:00:00 16.5 5 Norte 13 Norte 0 -- -- 84
2019-05-30 10:00:00 15 4 Norte 12 Norte 0 -- -- 92
2019-05-30 09:00:00 13.3 5 Norte 11 Noroeste 0 -- -- 98
2019-05-30 08:00:00 12.5 2 Sudeste 9 Nordeste 0 -- -- 98
2019-05-30 07:00:00 12.4 2 Sudeste 8 Este 0 -- -- 98
2019-05-30 06:00:00 12.5 3 Este 10 Este 0 -- -- 97
2019-05-30 05:00:00 12.6 3 Este 10 Nordeste 0 -- -- 97
2019-05-30 04:00:00 12.6 3 Este 11 Nordeste 0 -- -- 97
2019-05-30 03:00:00 12.8 3 Noroeste 10 Norte 0 -- -- 95
2019-05-30 02:00:00 12.9 3 Norte 9 Nordeste 0 -- -- 94
2019-05-30 01:00:00 12.8 5 Sudoeste 8 Sudoeste 0 -- -- 92
2019-05-30 00:00:00 13.1 2 Norte 13 Sudoeste 0 -- -- 93
2019-05-29 23:00:00 13.4 3 Sur 14 Sudeste 0 -- -- 94
2019-05-29 22:00:00 13.8 6 Sudeste 13 Este 0 -- -- 95
2019-05-29 21:00:00 14.2 3 Sur 12 Norte 0 -- -- 93
2019-05-29 20:00:00 15.1 6 Norte 14 Norte 0 -- -- 88
2019-05-29 19:00:00 17.2 4 Norte 15 Norte 0 -- -- 80
2019-05-29 18:00:00 19.2 4 Este 9 Noroeste 0 -- -- 74
2019-05-29 17:00:00 18.8 4 Nordeste 13 Sudeste 0 -- -- 75
2019-05-29 16:00:00 20.2 5 Sudeste 13 Este 0 -- -- 70
2019-05-29 15:00:00 18.4 5 Norte 14 Este 0 -- -- 77
2019-05-29 14:00:00 18.5 4 Sudeste 14 Nordeste 0 -- -- 78
2019-05-29 13:00:00 17 5 Sudeste 11 Sudeste 0 -- -- 85
2019-05-29 12:00:00 15.7 3 Sur 15 Sudeste 0 -- -- 94
2019-05-29 11:00:00 14.5 6 Sur 13 Sudeste 0 -- -- 96
2019-05-29 10:00:00 13.9 4 Sur 10 Sudeste 0 -- -- 98
2019-05-29 09:00:00 13.2 3 Sudoeste 8 Sudoeste 0 -- -- 99
2019-05-29 08:00:00 12.7 4 Este 10 Nordeste 0 -- -- 99
2019-05-29 07:00:00 12.3 2 Noroeste 10 Nordeste 0 -- -- 98
2019-05-29 06:00:00 12.6 2 Nordeste 9 Nordeste 0 -- -- 98
2019-05-29 05:00:00 12.4 3 Sur 10 Este 0 -- -- 97
2019-05-29 04:00:00 12.7 3 Sudeste 9 Norte 0 -- -- 97
2019-05-29 03:00:00 13.2 5 Este 10 Nordeste 0 -- -- 98
2019-05-29 02:00:00 13.5 8 Sudeste 14 Sudeste 0 -- -- 97
2019-05-29 01:00:00 13.7 3 Este 10 Sudeste 0 -- -- 97
2019-05-29 00:00:00 13.6 3 Sudeste 11 Este 0 -- -- 96
2019-05-28 23:00:00 13.8 2 Sudeste 12 Este 0 -- -- 96
2019-05-28 22:00:00 14 4 Sudoeste 14 Norte 0 -- -- 96
2019-05-28 21:00:00 14.3 4 Este 12 Norte 0 -- -- 95
2019-05-28 20:00:00 15.2 3 Este 14 Este 0 -- -- 92
2019-05-28 19:00:00 16.7 4 Nordeste 12 Este 0 -- -- 85
2019-05-28 18:00:00 18.7 5 Sudeste 10 Sur 0 -- -- 81
2019-05-28 17:00:00 18.3 4 Sudeste 14 Nordeste 0 -- -- 80
2019-05-28 16:00:00 18.8 6 Sudeste 14 Sudeste 0 -- -- 82
2019-05-28 15:00:00 17.8 4 Este 14 Sudeste 0 -- -- 82
2019-05-28 14:00:00 18 5 Sudeste 14 Sudeste 0 -- -- 85
2019-05-28 13:00:00 16.7 4 Norte 13 Sudeste 0 -- -- 90
2019-05-28 12:00:00 15.9 4 Sudeste 11 Sudeste 0 -- -- 94
2019-05-28 11:00:00 15 5 Sudeste 12 Sudeste 0 -- -- 98
2019-05-28 10:00:00 14.5 4 Sudeste 12 Este 0 -- -- 100
2019-05-28 09:00:00 13.7 7 Sudeste 19 Sudeste 0 -- -- 99
2019-05-28 08:00:00 13.4 5 Sudeste 14 Sudeste 0 -- -- 99
2019-05-28 07:00:00 13.5 4 Sudeste 11 Sudeste 0 -- -- 99
2019-05-28 06:00:00 13.6 4 Sudeste 15 Este 0 -- -- 99
2019-05-28 05:00:00 13.6 2 Este 11 Sur 0 -- -- 98
2019-05-28 04:00:00 13.3 4 Sur 12 Sudeste 0 -- -- 97
2019-05-28 03:00:00 13.7 6 Este 13 Nordeste 0 -- -- 98
2019-05-28 02:00:00 13.6 3 Sudoeste 5 Norte 0 -- -- 97
2019-05-28 01:00:00 13.7 2 Sudoeste 11 Sur 0 -- -- 96
2019-05-28 00:00:00 14.3 4 Sudeste 15 Sudeste 0 -- -- 96
2019-05-27 23:00:00 14.3 5 Sudeste 13 Sudeste 0 -- -- 95
2019-05-27 22:00:00 14.5 3 Este 8 Nordeste 0 -- -- 95
2019-05-27 21:00:00 14.8 3 Este 11 Nordeste 0 -- -- 94
2019-05-27 20:00:00 15.8 4 Sur 12 Sudeste 0 -- -- 90
2019-05-27 19:00:00 17.7 5 Norte 13 Nordeste 0 -- -- 81
2019-05-27 18:00:00 18.3 5 Norte 15 Sudeste 0 -- -- 79
2019-05-27 17:00:00 19.8 5 Sur 14 Norte 0 -- -- 76
2019-05-27 16:00:00 19.7 6 Nordeste 16 Norte 0 -- -- 72
2019-05-27 15:00:00 20.2 6 Nordeste 16 Nordeste 0 -- -- 70
2019-05-27 14:00:00 20.2 5 Sur 14 Sur 0 -- -- 75
2019-05-27 13:00:00 18.8 5 Sudeste 15 Sur 0 -- -- 77
2019-05-27 12:00:00 16.3 6 Sur 16 Sur 0 -- -- 88
2019-05-27 11:00:00 15.6 6 Sudeste 13 Sudeste 0 -- -- 94
2019-05-27 10:00:00 14.9 5 Este 14 Nordeste 0 -- -- 95
2019-05-27 09:00:00 13.9 3 Nordeste 10 Sur 0 -- -- 97
2019-05-27 08:00:00 12.9 5 Sur 10 Sudeste 0 -- -- 98
2019-05-27 07:00:00 12.7 3 Sur 9 Sudoeste 0 -- -- 98
2019-05-27 06:00:00 13.1 2 Sur 10 Este 0 -- -- 99
2019-05-27 05:00:00 13.2 5 Sudeste 15 Sudeste 0 -- -- 99
2019-05-27 04:00:00 13.5 4 Sudeste 13 Sudeste 0 -- -- 99
2019-05-27 03:00:00 13.5 4 Este 10 Nordeste 0 -- -- 99
2019-05-27 02:00:00 13.6 4 Este 13 Este 0 -- -- 99
2019-05-27 01:00:00 13.4 5 Norte 13 Norte 0 -- -- 98
2019-05-27 00:00:00 13.2 3 Sudoeste 6 Nordeste 0 -- -- 97